Esneux, Belgium
Current Conditions -  °F | °C
As of 8:20 AM on Thursday 18 Dec 2014 (Local Time) from EBLG Reporting Station
Broken Clouds Broken Clouds  
Wind Chill: 50°   Ceiling: 500
Heat Index: 50°   Visibility: 6mi
Dew Point: 48°   Wind: 14mph
Humidity: 94%   Direction: 240°WSW
Pressure: 29.85"   Gusts: NA
Location:  50.54°N, 5.57°E
Report Text: EBLG 180720Z 24012KT 9999 FEW003 BKN005 10/09 Q1011 TEMPO 2000 DZ BR BKN003
Loading
Personal Weather Stations






























Interactive Weather Map New forecast layout! Learn more

10-Day Weather Forecast

Advertisements
Track Severe Weather on mobile